sensor_id;sensor_type;location;lat;lon;timestamp;P1;durP1;ratioP1;P2;durP2;ratioP2
46439;SDS011;32138;50.966;6.968;2023-07-02T00:00:20;6.43;;;3.47;;
46439;SDS011;32138;50.966;6.968;2023-07-02T00:01:51;7.93;;;3.92;;
46439;SDS011;32138;50.966;6.968;2023-07-02T00:03:22;6.45;;;3.50;;
46439;SDS011;32138;50.966;6.968;2023-07-02T00:04:53;7.25;;;3.35;;
46439;SDS011;32138;50.966;6.968;2023-07-02T00:06:24;9.23;;;3.85;;
46439;SDS011;32138;50.966;6.968;2023-07-02T00:07:55;7.07;;;3.97;;
46439;SDS011;32138;50.966;6.968;2023-07-02T00:09:26;10.70;;;4.38;;
46439;SDS011;32138;50.966;6.968;2023-07-02T00:10:57;12.05;;;4.03;;
46439;SDS011;32138;50.966;6.968;2023-07-02T00:12:27;11.75;;;3.35;;
46439;SDS011;32138;50.966;6.968;2023-07-02T00:13:58;8.15;;;3.63;;
46439;SDS011;32138;50.966;6.968;2023-07-02T00:15:29;10.23;;;4.32;;
46439;SDS011;32138;50.966;6.968;2023-07-02T00:16:59;14.68;;;4.50;;
46439;SDS011;32138;50.966;6.968;2023-07-02T00:18:30;8.60;;;4.32;;
46439;SDS011;32138;50.966;6.968;2023-07-02T00:20:04;9.02;;;4.55;;
46439;SDS011;32138;50.966;6.968;2023-07-02T00:21:36;7.22;;;4.25;;
46439;SDS011;32138;50.966;6.968;2023-07-02T00:23:07;9.90;;;4.90;;
46439;SDS011;32138;50.966;6.968;2023-07-02T00:24:39;8.63;;;4.60;;
46439;SDS011;32138;50.966;6.968;2023-07-02T00:26:11;8.80;;;4.20;;
46439;SDS011;32138;50.966;6.968;2023-07-02T00:27:41;10.00;;;5.38;;
46439;SDS011;32138;50.966;6.968;2023-07-02T00:29:12;9.88;;;4.43;;
46439;SDS011;32138;50.966;6.968;2023-07-02T00:30:43;10.20;;;4.90;;
46439;SDS011;32138;50.966;6.968;2023-07-02T00:32:14;8.95;;;4.63;;
46439;SDS011;32138;50.966;6.968;2023-07-02T00:33:44;8.13;;;4.20;;
46439;SDS011;32138;50.966;6.968;2023-07-02T00:35:16;12.15;;;3.97;;
46439;SDS011;32138;50.966;6.968;2023-07-02T00:36:46;9.27;;;4.65;;
46439;SDS011;32138;50.966;6.968;2023-07-02T00:38:17;8.45;;;4.93;;
46439;SDS011;32138;50.966;6.968;2023-07-02T00:39:48;7.95;;;4.75;;
46439;SDS011;32138;50.966;6.968;2023-07-02T00:41:19;12.40;;;4.38;;
46439;SDS011;32138;50.966;6.968;2023-07-02T00:42:50;11.25;;;5.53;;
46439;SDS011;32138;50.966;6.968;2023-07-02T00:44:20;9.60;;;5.00;;
46439;SDS011;32138;50.966;6.968;2023-07-02T00:45:51;10.00;;;4.82;;
46439;SDS011;32138;50.966;6.968;2023-07-02T00:47:22;10.57;;;4.80;;
46439;SDS011;32138;50.966;6.968;2023-07-02T00:48:54;12.38;;;5.20;;
46439;SDS011;32138;50.966;6.968;2023-07-02T00:50:25;11.38;;;5.75;;
46439;SDS011;32138;50.966;6.968;2023-07-02T00:51:57;7.72;;;4.57;;
46439;SDS011;32138;50.966;6.968;2023-07-02T00:53:27;11.60;;;4.45;;
46439;SDS011;32138;50.966;6.968;2023-07-02T00:54:58;11.45;;;5.45;;
46439;SDS011;32138;50.966;6.968;2023-07-02T00:56:29;11.77;;;5.60;;
46439;SDS011;32138;50.966;6.968;2023-07-02T00:58:00;9.57;;;5.43;;
46439;SDS011;32138;50.966;6.968;2023-07-02T00:59:32;10.23;;;5.60;;
46439;SDS011;32138;50.966;6.968;2023-07-02T01:01:05;11.30;;;5.03;;
46439;SDS011;32138;50.966;6.968;2023-07-02T01:02:37;8.07;;;4.22;;
46439;SDS011;32138;50.966;6.968;2023-07-02T01:04:08;9.73;;;5.07;;
46439;SDS011;32138;50.966;6.968;2023-07-02T01:05:39;13.43;;;5.03;;
46439;SDS011;32138;50.966;6.968;2023-07-02T01:07:11;9.68;;;4.93;;
46439;SDS011;32138;50.966;6.968;2023-07-02T01:08:42;8.32;;;4.75;;
46439;SDS011;32138;50.966;6.968;2023-07-02T01:10:12;9.23;;;5.60;;
46439;SDS011;32138;50.966;6.968;2023-07-02T01:11:44;9.48;;;5.13;;
46439;SDS011;32138;50.966;6.968;2023-07-02T01:13:20;12.93;;;5.57;;
46439;SDS011;32138;50.966;6.968;2023-07-02T01:14:54;8.27;;;5.00;;
46439;SDS011;32138;50.966;6.968;2023-07-02T01:16:30;11.27;;;6.05;;
46439;SDS011;32138;50.966;6.968;2023-07-02T01:18:03;14.50;;;6.05;;
46439;SDS011;32138;50.966;6.968;2023-07-02T01:19:55;11.48;;;5.68;;
46439;SDS011;32138;50.966;6.968;2023-07-02T01:21:28;11.30;;;5.20;;
46439;SDS011;32138;50.966;6.968;2023-07-02T01:23:00;12.80;;;5.68;;
46439;SDS011;32138;50.966;6.968;2023-07-02T01:24:33;12.43;;;5.85;;
46439;SDS011;32138;50.966;6.968;2023-07-02T01:26:04;11.80;;;5.93;;
46439;SDS011;32138;50.966;6.968;2023-07-02T01:27:34;15.43;;;6.30;;
46439;SDS011;32138;50.966;6.968;2023-07-02T01:29:15;11.52;;;5.90;;
46439;SDS011;32138;50.966;6.968;2023-07-02T01:30:47;12.02;;;7.00;;
46439;SDS011;32138;50.966;6.968;2023-07-02T01:32:18;11.27;;;5.35;;
46439;SDS011;32138;50.966;6.968;2023-07-02T01:33:49;11.25;;;6.25;;
46439;SDS011;32138;50.966;6.968;2023-07-02T01:35:20;10.27;;;5.88;;
46439;SDS011;32138;50.966;6.968;2023-07-02T01:36:50;10.75;;;6.57;;
46439;SDS011;32138;50.966;6.968;2023-07-02T01:38:21;15.15;;;7.13;;
46439;SDS011;32138;50.966;6.968;2023-07-02T01:39:52;16.70;;;8.05;;
46439;SDS011;32138;50.966;6.968;2023-07-02T01:41:23;13.00;;;6.97;;
46439;SDS011;32138;50.966;6.968;2023-07-02T01:42:53;17.15;;;7.95;;
46439;SDS011;32138;50.966;6.968;2023-07-02T01:44:24;11.63;;;7.30;;
46439;SDS011;32138;50.966;6.968;2023-07-02T01:45:56;14.30;;;7.68;;
46439;SDS011;32138;50.966;6.968;2023-07-02T01:47:27;15.13;;;8.52;;
46439;SDS011;32138;50.966;6.968;2023-07-02T01:48:58;13.35;;;7.70;;
46439;SDS011;32138;50.966;6.968;2023-07-02T01:50:29;16.00;;;8.30;;
46439;SDS011;32138;50.966;6.968;2023-07-02T01:51:59;13.35;;;8.07;;
46439;SDS011;32138;50.966;6.968;2023-07-02T01:53:30;12.75;;;8.48;;
46439;SDS011;32138;50.966;6.968;2023-07-02T01:55:01;13.45;;;8.55;;
46439;SDS011;32138;50.966;6.968;2023-07-02T01:56:32;16.08;;;8.77;;
46439;SDS011;32138;50.966;6.968;2023-07-02T01:58:05;15.70;;;8.00;;
46439;SDS011;32138;50.966;6.968;2023-07-02T01:59:37;13.20;;;8.68;;
46439;SDS011;32138;50.966;6.968;2023-07-02T02:01:07;16.45;;;9.38;;
46439;SDS011;32138;50.966;6.968;2023-07-02T02:02:38;16.85;;;9.85;;
46439;SDS011;32138;50.966;6.968;2023-07-02T02:04:09;15.20;;;9.30;;
46439;SDS011;32138;50.966;6.968;2023-07-02T02:05:40;18.60;;;9.40;;
46439;SDS011;32138;50.966;6.968;2023-07-02T02:07:11;14.07;;;9.95;;
46439;SDS011;32138;50.966;6.968;2023-07-02T02:08:42;17.50;;;9.70;;
46439;SDS011;32138;50.966;6.968;2023-07-02T02:10:12;17.42;;;9.38;;
46439;SDS011;32138;50.966;6.968;2023-07-02T02:11:48;16.83;;;9.27;;
46439;SDS011;32138;50.966;6.968;2023-07-02T02:13:20;13.75;;;8.75;;
46439;SDS011;32138;50.966;6.968;2023-07-02T02:14:51;19.52;;;10.63;;
46439;SDS011;32138;50.966;6.968;2023-07-02T02:16:21;22.90;;;10.48;;
46439;SDS011;32138;50.966;6.968;2023-07-02T02:17:52;18.67;;;10.30;;
46439;SDS011;32138;50.966;6.968;2023-07-02T02:19:23;21.33;;;11.73;;
46439;SDS011;32138;50.966;6.968;2023-07-02T02:20:54;18.77;;;10.50;;
46439;SDS011;32138;50.966;6.968;2023-07-02T02:22:24;16.95;;;11.48;;
46439;SDS011;32138;50.966;6.968;2023-07-02T02:23:55;21.55;;;11.05;;
46439;SDS011;32138;50.966;6.968;2023-07-02T02:25:26;20.80;;;11.75;;
46439;SDS011;32138;50.966;6.968;2023-07-02T02:26:56;16.17;;;10.35;;
46439;SDS011;32138;50.966;6.968;2023-07-02T02:28:27;17.67;;;11.65;;
46439;SDS011;32138;50.966;6.968;2023-07-02T02:29:58;18.80;;;11.65;;
46439;SDS011;32138;50.966;6.968;2023-07-02T02:31:29;19.33;;;10.52;;
46439;SDS011;32138;50.966;6.968;2023-07-02T02:33:00;27.95;;;12.48;;
46439;SDS011;32138;50.966;6.968;2023-07-02T02:34:31;22.75;;;12.05;;
46439;SDS011;32138;50.966;6.968;2023-07-02T02:36:02;19.77;;;11.38;;
46439;SDS011;32138;50.966;6.968;2023-07-02T02:37:33;24.42;;;12.38;;
46439;SDS011;32138;50.966;6.968;2023-07-02T02:39:08;18.02;;;11.68;;
46439;SDS011;32138;50.966;6.968;2023-07-02T02:40:39;21.15;;;12.02;;
46439;SDS011;32138;50.966;6.968;2023-07-02T02:42:10;21.45;;;11.88;;
46439;SDS011;32138;50.966;6.968;2023-07-02T02:43:41;22.48;;;12.52;;
46439;SDS011;32138;50.966;6.968;2023-07-02T02:45:12;21.83;;;12.10;;
46439;SDS011;32138;50.966;6.968;2023-07-02T02:46:43;27.88;;;13.18;;
46439;SDS011;32138;50.966;6.968;2023-07-02T02:48:14;19.33;;;12.65;;
46439;SDS011;32138;50.966;6.968;2023-07-02T02:49:45;23.00;;;12.88;;
46439;SDS011;32138;50.966;6.968;2023-07-02T02:51:15;24.13;;;13.30;;
46439;SDS011;32138;50.966;6.968;2023-07-02T02:52:46;20.85;;;12.93;;
46439;SDS011;32138;50.966;6.968;2023-07-02T02:54:17;22.48;;;12.15;;
46439;SDS011;32138;50.966;6.968;2023-07-02T02:55:47;21.63;;;12.43;;
46439;SDS011;32138;50.966;6.968;2023-07-02T02:57:18;20.48;;;12.70;;
46439;SDS011;32138;50.966;6.968;2023-07-02T02:58:49;21.98;;;11.93;;
46439;SDS011;32138;50.966;6.968;2023-07-02T03:00:20;21.27;;;12.70;;
46439;SDS011;32138;50.966;6.968;2023-07-02T03:01:50;22.48;;;12.55;;
46439;SDS011;32138;50.966;6.968;2023-07-02T03:03:21;23.90;;;12.50;;
46439;SDS011;32138;50.966;6.968;2023-07-02T03:04:54;21.42;;;12.95;;
46439;SDS011;32138;50.966;6.968;2023-07-02T03:06:26;21.27;;;12.40;;
46439;SDS011;32138;50.966;6.968;2023-07-02T03:07:57;21.98;;;13.48;;
46439;SDS011;32138;50.966;6.968;2023-07-02T03:09:28;25.25;;;13.63;;
46439;SDS011;32138;50.966;6.968;2023-07-02T03:10:59;21.73;;;12.75;;
46439;SDS011;32138;50.966;6.968;2023-07-02T03:12:29;18.40;;;12.40;;
46439;SDS011;32138;50.966;6.968;2023-07-02T03:14:00;23.52;;;13.65;;
46439;SDS011;32138;50.966;6.968;2023-07-02T03:15:31;20.58;;;12.32;;
46439;SDS011;32138;50.966;6.968;2023-07-02T03:17:01;21.55;;;13.60;;
46439;SDS011;32138;50.966;6.968;2023-07-02T03:18:33;22.85;;;13.02;;
46439;SDS011;32138;50.966;6.968;2023-07-02T03:20:04;20.08;;;13.07;;
46439;SDS011;32138;50.966;6.968;2023-07-02T03:21:39;23.50;;;14.07;;
46439;SDS011;32138;50.966;6.968;2023-07-02T03:23:10;21.42;;;13.07;;
46439;SDS011;32138;50.966;6.968;2023-07-02T03:24:41;24.50;;;13.25;;
46439;SDS011;32138;50.966;6.968;2023-07-02T03:26:12;23.08;;;13.38;;
46439;SDS011;32138;50.966;6.968;2023-07-02T03:27:42;21.75;;;13.85;;
46439;SDS011;32138;50.966;6.968;2023-07-02T03:29:13;24.60;;;13.63;;
46439;SDS011;32138;50.966;6.968;2023-07-02T03:30:46;21.45;;;13.77;;
46439;SDS011;32138;50.966;6.968;2023-07-02T03:32:16;21.25;;;13.63;;
46439;SDS011;32138;50.966;6.968;2023-07-02T03:33:47;20.70;;;13.73;;
46439;SDS011;32138;50.966;6.968;2023-07-02T03:35:18;23.40;;;15.05;;
46439;SDS011;32138;50.966;6.968;2023-07-02T03:36:49;30.33;;;15.65;;
46439;SDS011;32138;50.966;6.968;2023-07-02T03:38:20;24.85;;;13.30;;
46439;SDS011;32138;50.966;6.968;2023-07-02T03:39:50;26.75;;;15.52;;
46439;SDS011;32138;50.966;6.968;2023-07-02T03:41:21;24.90;;;15.07;;
46439;SDS011;32138;50.966;6.968;2023-07-02T03:42:52;25.55;;;14.70;;
46439;SDS011;32138;50.966;6.968;2023-07-02T03:44:22;23.13;;;14.60;;
46439;SDS011;32138;50.966;6.968;2023-07-02T03:45:53;20.92;;;13.95;;
46439;SDS011;32138;50.966;6.968;2023-07-02T03:47:24;22.77;;;14.85;;
46439;SDS011;32138;50.966;6.968;2023-07-02T03:48:55;24.00;;;14.50;;
46439;SDS011;32138;50.966;6.968;2023-07-02T03:50:25;21.95;;;15.13;;
46439;SDS011;32138;50.966;6.968;2023-07-02T03:51:56;27.95;;;14.85;;
46439;SDS011;32138;50.966;6.968;2023-07-02T03:53:27;22.45;;;15.38;;
46439;SDS011;32138;50.966;6.968;2023-07-02T03:54:57;28.15;;;15.35;;
46439;SDS011;32138;50.966;6.968;2023-07-02T03:56:29;21.88;;;14.88;;
46439;SDS011;32138;50.966;6.968;2023-07-02T03:58:00;30.80;;;15.00;;
46439;SDS011;32138;50.966;6.968;2023-07-02T03:59:30;22.42;;;14.55;;
46439;SDS011;32138;50.966;6.968;2023-07-02T04:01:01;26.33;;;15.52;;
46439;SDS011;32138;50.966;6.968;2023-07-02T04:02:32;29.85;;;17.20;;
46439;SDS011;32138;50.966;6.968;2023-07-02T04:04:03;28.42;;;16.60;;
46439;SDS011;32138;50.966;6.968;2023-07-02T04:05:33;25.50;;;15.63;;
46439;SDS011;32138;50.966;6.968;2023-07-02T04:07:04;25.92;;;15.93;;
46439;SDS011;32138;50.966;6.968;2023-07-02T04:08:35;25.23;;;15.57;;
46439;SDS011;32138;50.966;6.968;2023-07-02T04:10:06;26.77;;;15.50;;
46439;SDS011;32138;50.966;6.968;2023-07-02T04:11:37;26.25;;;17.05;;
46439;SDS011;32138;50.966;6.968;2023-07-02T04:13:08;27.92;;;16.08;;
46439;SDS011;32138;50.966;6.968;2023-07-02T04:14:39;34.35;;;18.92;;
46439;SDS011;32138;50.966;6.968;2023-07-02T04:16:10;25.27;;;16.42;;
46439;SDS011;32138;50.966;6.968;2023-07-02T04:17:40;24.75;;;16.48;;
46439;SDS011;32138;50.966;6.968;2023-07-02T04:19:11;33.90;;;17.65;;
46439;SDS011;32138;50.966;6.968;2023-07-02T04:20:42;27.08;;;17.73;;
46439;SDS011;32138;50.966;6.968;2023-07-02T04:22:12;28.20;;;17.67;;
46439;SDS011;32138;50.966;6.968;2023-07-02T04:23:43;29.63;;;17.10;;
46439;SDS011;32138;50.966;6.968;2023-07-02T04:25:14;29.17;;;17.35;;
46439;SDS011;32138;50.966;6.968;2023-07-02T04:26:45;30.60;;;17.42;;
46439;SDS011;32138;50.966;6.968;2023-07-02T04:28:16;38.08;;;18.52;;
46439;SDS011;32138;50.966;6.968;2023-07-02T04:29:47;28.80;;;18.00;;
46439;SDS011;32138;50.966;6.968;2023-07-02T04:31:17;28.77;;;17.50;;
46439;SDS011;32138;50.966;6.968;2023-07-02T04:32:49;35.70;;;18.02;;
46439;SDS011;32138;50.966;6.968;2023-07-02T04:34:20;29.73;;;18.88;;
46439;SDS011;32138;50.966;6.968;2023-07-02T04:35:52;26.30;;;18.10;;
46439;SDS011;32138;50.966;6.968;2023-07-02T04:37:22;32.03;;;20.05;;
46439;SDS011;32138;50.966;6.968;2023-07-02T04:38:53;33.55;;;20.25;;
46439;SDS011;32138;50.966;6.968;2023-07-02T04:40:24;30.77;;;19.30;;
46439;SDS011;32138;50.966;6.968;2023-07-02T04:41:55;29.30;;;18.23;;
46439;SDS011;32138;50.966;6.968;2023-07-02T04:43:25;29.90;;;18.95;;
46439;SDS011;32138;50.966;6.968;2023-07-02T04:44:59;31.42;;;19.75;;
46439;SDS011;32138;50.966;6.968;2023-07-02T04:46:33;30.95;;;20.80;;
46439;SDS011;32138;50.966;6.968;2023-07-02T04:48:05;31.73;;;19.33;;
46439;SDS011;32138;50.966;6.968;2023-07-02T04:49:36;30.30;;;18.80;;
46439;SDS011;32138;50.966;6.968;2023-07-02T04:51:08;33.92;;;20.20;;
46439;SDS011;32138;50.966;6.968;2023-07-02T04:52:39;32.05;;;19.85;;
46439;SDS011;32138;50.966;6.968;2023-07-02T04:54:09;29.85;;;19.85;;
46439;SDS011;32138;50.966;6.968;2023-07-02T04:55:40;40.65;;;19.80;;
46439;SDS011;32138;50.966;6.968;2023-07-02T04:57:11;32.95;;;17.55;;
46439;SDS011;32138;50.966;6.968;2023-07-02T04:58:44;35.67;;;19.60;;
46439;SDS011;32138;50.966;6.968;2023-07-02T05:00:15;30.50;;;18.65;;
46439;SDS011;32138;50.966;6.968;2023-07-02T05:01:46;37.53;;;20.10;;
46439;SDS011;32138;50.966;6.968;2023-07-02T05:03:17;35.35;;;19.95;;
46439;SDS011;32138;50.966;6.968;2023-07-02T05:04:48;31.02;;;19.52;;
46439;SDS011;32138;50.966;6.968;2023-07-02T05:06:19;34.03;;;19.90;;
46439;SDS011;32138;50.966;6.968;2023-07-02T05:07:49;34.83;;;20.75;;
46439;SDS011;32138;50.966;6.968;2023-07-02T05:09:20;30.65;;;20.67;;
46439;SDS011;32138;50.966;6.968;2023-07-02T05:10:51;32.00;;;19.85;;
46439;SDS011;32138;50.966;6.968;2023-07-02T05:12:22;29.70;;;20.70;;
46439;SDS011;32138;50.966;6.968;2023-07-02T05:13:53;32.30;;;20.58;;
46439;SDS011;32138;50.966;6.968;2023-07-02T05:15:24;35.00;;;21.35;;
46439;SDS011;32138;50.966;6.968;2023-07-02T05:16:56;36.20;;;20.48;;
46439;SDS011;32138;50.966;6.968;2023-07-02T05:18:26;33.17;;;21.77;;
46439;SDS011;32138;50.966;6.968;2023-07-02T05:19:57;37.90;;;20.90;;
46439;SDS011;32138;50.966;6.968;2023-07-02T05:21:28;38.15;;;22.75;;
46439;SDS011;32138;50.966;6.968;2023-07-02T05:22:59;35.38;;;21.42;;
46439;SDS011;32138;50.966;6.968;2023-07-02T05:24:30;37.47;;;20.88;;
46439;SDS011;32138;50.966;6.968;2023-07-02T05:26:01;33.83;;;20.23;;
46439;SDS011;32138;50.966;6.968;2023-07-02T05:27:32;40.17;;;21.13;;
46439;SDS011;32138;50.966;6.968;2023-07-02T05:29:03;37.22;;;21.60;;
46439;SDS011;32138;50.966;6.968;2023-07-02T05:30:35;44.03;;;22.90;;
46439;SDS011;32138;50.966;6.968;2023-07-02T05:32:06;35.88;;;20.33;;
46439;SDS011;32138;50.966;6.968;2023-07-02T05:33:38;36.53;;;21.35;;
46439;SDS011;32138;50.966;6.968;2023-07-02T05:35:09;30.70;;;20.92;;
46439;SDS011;32138;50.966;6.968;2023-07-02T05:36:39;31.77;;;20.33;;
46439;SDS011;32138;50.966;6.968;2023-07-02T05:38:10;33.63;;;22.17;;
46439;SDS011;32138;50.966;6.968;2023-07-02T05:39:41;34.75;;;22.08;;
46439;SDS011;32138;50.966;6.968;2023-07-02T05:41:17;38.15;;;22.38;;
46439;SDS011;32138;50.966;6.968;2023-07-02T05:42:51;34.03;;;21.02;;
46439;SDS011;32138;50.966;6.968;2023-07-02T05:44:22;38.22;;;21.92;;
46439;SDS011;32138;50.966;6.968;2023-07-02T05:45:53;36.38;;;21.75;;
46439;SDS011;32138;50.966;6.968;2023-07-02T05:47:24;36.42;;;21.88;;
46439;SDS011;32138;50.966;6.968;2023-07-02T05:48:54;35.17;;;22.27;;
46439;SDS011;32138;50.966;6.968;2023-07-02T05:50:29;39.10;;;23.33;;
46439;SDS011;32138;50.966;6.968;2023-07-02T05:52:00;35.65;;;22.00;;
46439;SDS011;32138;50.966;6.968;2023-07-02T05:53:31;34.25;;;22.02;;
46439;SDS011;32138;50.966;6.968;2023-07-02T05:55:02;34.78;;;22.20;;
46439;SDS011;32138;50.966;6.968;2023-07-02T05:56:33;36.20;;;22.33;;
46439;SDS011;32138;50.966;6.968;2023-07-02T05:58:04;39.00;;;24.15;;
46439;SDS011;32138;50.966;6.968;2023-07-02T05:59:35;37.33;;;22.85;;
46439;SDS011;32138;50.966;6.968;2023-07-02T06:01:08;42.38;;;24.45;;
46439;SDS011;32138;50.966;6.968;2023-07-02T06:02:39;36.88;;;23.02;;
46439;SDS011;32138;50.966;6.968;2023-07-02T06:04:09;40.00;;;22.48;;
46439;SDS011;32138;50.966;6.968;2023-07-02T06:05:40;38.83;;;24.05;;
46439;SDS011;32138;50.966;6.968;2023-07-02T06:07:11;41.35;;;23.48;;
46439;SDS011;32138;50.966;6.968;2023-07-02T06:08:41;36.03;;;23.50;;
46439;SDS011;32138;50.966;6.968;2023-07-02T06:10:12;43.47;;;25.85;;
46439;SDS011;32138;50.966;6.968;2023-07-02T06:11:43;36.83;;;23.17;;
46439;SDS011;32138;50.966;6.968;2023-07-02T06:13:14;39.97;;;23.45;;
46439;SDS011;32138;50.966;6.968;2023-07-02T06:14:45;39.90;;;24.67;;
46439;SDS011;32138;50.966;6.968;2023-07-02T06:16:15;38.63;;;22.35;;
46439;SDS011;32138;50.966;6.968;2023-07-02T06:17:46;39.00;;;24.05;;
46439;SDS011;32138;50.966;6.968;2023-07-02T06:19:17;35.58;;;24.05;;
46439;SDS011;32138;50.966;6.968;2023-07-02T06:20:47;34.45;;;22.25;;
46439;SDS011;32138;50.966;6.968;2023-07-02T06:22:18;34.60;;;23.00;;
46439;SDS011;32138;50.966;6.968;2023-07-02T06:23:49;34.13;;;22.67;;
46439;SDS011;32138;50.966;6.968;2023-07-02T06:25:20;39.83;;;23.98;;
46439;SDS011;32138;50.966;6.968;2023-07-02T06:26:50;39.78;;;22.25;;
46439;SDS011;32138;50.966;6.968;2023-07-02T06:28:21;35.78;;;22.20;;
46439;SDS011;32138;50.966;6.968;2023-07-02T06:29:52;41.95;;;24.05;;
46439;SDS011;32138;50.966;6.968;2023-07-02T06:31:22;34.88;;;22.08;;
46439;SDS011;32138;50.966;6.968;2023-07-02T06:32:54;35.97;;;22.00;;
46439;SDS011;32138;50.966;6.968;2023-07-02T06:34:25;36.42;;;21.92;;
46439;SDS011;32138;50.966;6.968;2023-07-02T06:35:55;36.38;;;22.27;;
46439;SDS011;32138;50.966;6.968;2023-07-02T06:37:26;40.03;;;23.38;;
46439;SDS011;32138;50.966;6.968;2023-07-02T06:38:57;34.92;;;21.40;;
46439;SDS011;32138;50.966;6.968;2023-07-02T06:40:28;37.95;;;21.95;;
46439;SDS011;32138;50.966;6.968;2023-07-02T06:41:58;35.22;;;20.35;;
46439;SDS011;32138;50.966;6.968;2023-07-02T06:43:29;40.17;;;22.75;;
46439;SDS011;32138;50.966;6.968;2023-07-02T06:45:00;40.25;;;21.30;;
46439;SDS011;32138;50.966;6.968;2023-07-02T06:46:30;33.70;;;22.10;;
46439;SDS011;32138;50.966;6.968;2023-07-02T06:48:02;34.90;;;21.30;;
46439;SDS011;32138;50.966;6.968;2023-07-02T06:49:32;35.75;;;22.25;;
46439;SDS011;32138;50.966;6.968;2023-07-02T06:51:03;34.67;;;21.70;;
46439;SDS011;32138;50.966;6.968;2023-07-02T06:52:34;36.75;;;21.80;;
46439;SDS011;32138;50.966;6.968;2023-07-02T06:54:06;34.92;;;22.27;;
46439;SDS011;32138;50.966;6.968;2023-07-02T06:55:37;39.00;;;21.50;;
46439;SDS011;32138;50.966;6.968;2023-07-02T06:57:08;35.55;;;22.30;;
46439;SDS011;32138;50.966;6.968;2023-07-02T06:58:39;38.75;;;22.40;;
46439;SDS011;32138;50.966;6.968;2023-07-02T07:00:12;40.95;;;23.40;;
46439;SDS011;32138;50.966;6.968;2023-07-02T07:01:44;39.33;;;21.40;;
46439;SDS011;32138;50.966;6.968;2023-07-02T07:03:15;34.88;;;21.90;;
46439;SDS011;32138;50.966;6.968;2023-07-02T07:04:46;33.15;;;22.27;;
46439;SDS011;32138;50.966;6.968;2023-07-02T07:06:17;42.05;;;23.77;;
46439;SDS011;32138;50.966;6.968;2023-07-02T07:07:48;36.88;;;23.67;;
46439;SDS011;32138;50.966;6.968;2023-07-02T07:09:19;37.03;;;22.10;;
46439;SDS011;32138;50.966;6.968;2023-07-02T07:10:49;40.38;;;23.60;;
46439;SDS011;32138;50.966;6.968;2023-07-02T07:12:20;39.97;;;22.95;;
46439;SDS011;32138;50.966;6.968;2023-07-02T07:13:51;34.70;;;21.52;;
46439;SDS011;32138;50.966;6.968;2023-07-02T07:15:22;42.17;;;22.50;;
46439;SDS011;32138;50.966;6.968;2023-07-02T07:16:52;34.95;;;21.98;;
46439;SDS011;32138;50.966;6.968;2023-07-02T07:18:23;34.83;;;21.75;;
46439;SDS011;32138;50.966;6.968;2023-07-02T07:19:54;37.50;;;21.23;;
46439;SDS011;32138;50.966;6.968;2023-07-02T07:21:25;32.33;;;19.40;;
46439;SDS011;32138;50.966;6.968;2023-07-02T07:22:55;37.45;;;20.27;;
46439;SDS011;32138;50.966;6.968;2023-07-02T07:24:26;33.95;;;20.65;;
46439;SDS011;32138;50.966;6.968;2023-07-02T07:25:57;39.90;;;22.98;;
46439;SDS011;32138;50.966;6.968;2023-07-02T07:27:28;39.10;;;22.10;;
46439;SDS011;32138;50.966;6.968;2023-07-02T07:28:58;29.00;;;18.63;;
46439;SDS011;32138;50.966;6.968;2023-07-02T07:30:29;34.95;;;20.73;;
46439;SDS011;32138;50.966;6.968;2023-07-02T07:32:00;41.40;;;21.65;;
46439;SDS011;32138;50.966;6.968;2023-07-02T07:33:30;34.60;;;20.75;;
46439;SDS011;32138;50.966;6.968;2023-07-02T07:35:01;34.53;;;20.33;;
46439;SDS011;32138;50.966;6.968;2023-07-02T07:36:32;33.92;;;19.38;;
46439;SDS011;32138;50.966;6.968;2023-07-02T07:38:03;34.95;;;19.02;;
46439;SDS011;32138;50.966;6.968;2023-07-02T07:39:34;35.83;;;20.33;;
46439;SDS011;32138;50.966;6.968;2023-07-02T07:41:05;36.80;;;21.35;;
46439;SDS011;32138;50.966;6.968;2023-07-02T07:42:35;34.30;;;19.75;;
46439;SDS011;32138;50.966;6.968;2023-07-02T07:44:06;43.03;;;22.15;;
46439;SDS011;32138;50.966;6.968;2023-07-02T07:45:37;31.48;;;19.98;;
46439;SDS011;32138;50.966;6.968;2023-07-02T07:47:08;40.13;;;19.35;;
46439;SDS011;32138;50.966;6.968;2023-07-02T07:48:38;33.40;;;18.75;;
46439;SDS011;32138;50.966;6.968;2023-07-02T07:50:09;29.65;;;20.35;;
46439;SDS011;32138;50.966;6.968;2023-07-02T07:51:40;34.47;;;19.58;;
46439;SDS011;32138;50.966;6.968;2023-07-02T07:53:11;32.17;;;18.08;;
46439;SDS011;32138;50.966;6.968;2023-07-02T07:54:41;31.42;;;18.75;;
46439;SDS011;32138;50.966;6.968;2023-07-02T07:56:13;26.73;;;19.30;;
46439;SDS011;32138;50.966;6.968;2023-07-02T07:57:44;32.40;;;18.65;;
46439;SDS011;32138;50.966;6.968;2023-07-02T07:59:14;29.02;;;18.25;;
46439;SDS011;32138;50.966;6.968;2023-07-02T08:00:45;31.60;;;17.98;;
46439;SDS011;32138;50.966;6.968;2023-07-02T08:02:16;32.50;;;16.92;;
46439;SDS011;32138;50.966;6.968;2023-07-02T08:03:47;30.17;;;19.05;;
46439;SDS011;32138;50.966;6.968;2023-07-02T08:05:17;31.98;;;17.95;;
46439;SDS011;32138;50.966;6.968;2023-07-02T08:06:48;31.58;;;17.02;;
46439;SDS011;32138;50.966;6.968;2023-07-02T08:08:19;29.42;;;17.65;;
46439;SDS011;32138;50.966;6.968;2023-07-02T08:09:50;28.23;;;17.48;;
46439;SDS011;32138;50.966;6.968;2023-07-02T08:11:20;33.03;;;17.92;;
46439;SDS011;32138;50.966;6.968;2023-07-02T08:12:51;31.45;;;19.20;;
46439;SDS011;32138;50.966;6.968;2023-07-02T08:14:22;30.58;;;17.58;;
46439;SDS011;32138;50.966;6.968;2023-07-02T08:15:53;30.83;;;16.48;;
46439;SDS011;32138;50.966;6.968;2023-07-02T08:17:23;29.90;;;17.60;;
46439;SDS011;32138;50.966;6.968;2023-07-02T08:18:54;29.38;;;17.65;;
46439;SDS011;32138;50.966;6.968;2023-07-02T08:20:25;32.67;;;18.80;;
46439;SDS011;32138;50.966;6.968;2023-07-02T08:21:56;33.15;;;17.90;;
46439;SDS011;32138;50.966;6.968;2023-07-02T08:23:26;27.80;;;17.02;;
46439;SDS011;32138;50.966;6.968;2023-07-02T08:24:57;31.23;;;18.08;;
46439;SDS011;32138;50.966;6.968;2023-07-02T08:26:28;31.65;;;18.88;;
46439;SDS011;32138;50.966;6.968;2023-07-02T08:27:59;30.38;;;18.02;;
46439;SDS011;32138;50.966;6.968;2023-07-02T08:29:30;30.98;;;17.50;;
46439;SDS011;32138;50.966;6.968;2023-07-02T08:31:01;32.08;;;19.33;;
46439;SDS011;32138;50.966;6.968;2023-07-02T08:32:31;28.05;;;17.63;;
46439;SDS011;32138;50.966;6.968;2023-07-02T08:34:03;30.75;;;16.63;;
46439;SDS011;32138;50.966;6.968;2023-07-02T08:35:34;27.98;;;18.60;;
46439;SDS011;32138;50.966;6.968;2023-07-02T08:37:04;29.80;;;18.48;;
46439;SDS011;32138;50.966;6.968;2023-07-02T08:38:35;33.33;;;18.15;;
46439;SDS011;32138;50.966;6.968;2023-07-02T08:40:18;33.97;;;17.80;;
46439;SDS011;32138;50.966;6.968;2023-07-02T08:41:49;29.20;;;18.05;;
46439;SDS011;32138;50.966;6.968;2023-07-02T08:43:21;37.00;;;18.52;;
46439;SDS011;32138;50.966;6.968;2023-07-02T08:44:53;29.50;;;16.15;;
46439;SDS011;32138;50.966;6.968;2023-07-02T08:46:24;33.55;;;18.30;;
46439;SDS011;32138;50.966;6.968;2023-07-02T08:47:55;35.47;;;18.35;;
46439;SDS011;32138;50.966;6.968;2023-07-02T08:49:28;32.10;;;18.52;;
46439;SDS011;32138;50.966;6.968;2023-07-02T08:50:59;36.83;;;17.45;;
46439;SDS011;32138;50.966;6.968;2023-07-02T08:52:29;24.60;;;14.43;;
46439;SDS011;32138;50.966;6.968;2023-07-02T08:54:01;27.52;;;15.63;;
46439;SDS011;32138;50.966;6.968;2023-07-02T08:55:32;28.27;;;16.63;;